ADDS METAR Data INFO
IDs: Format: Raw Decoded Include TAF

Data at: 1844 UTC 17 Oct 2017

KTVR 171753Z AUTO VRB03KT 10SM CLR 21/12 A3025 RMK AO2 SLP249 T02110122 10211 20078 58017
KTVR 171653Z AUTO 03003KT 10SM CLR 19/11 A3027 RMK AO2 SLP258 T01940111
KTVR 171553Z AUTO 06003KT 10SM CLR 17/10 A3029 RMK AO2 SLP262 T01720100
KTVR 171453Z AUTO 06007KT 10SM CLR 14/09 A3030 RMK AO2 SLP266 T01440089 50006
KTVR 171353Z AUTO 03006KT 10SM CLR 12/08 A3030 RMK AO2 SLP268 T01170083
KTVR 171253Z AUTO 03006KT 10SM CLR 09/08 A3028 RMK AO2 SLP261 T00940078
KTVR 171153Z AUTO 03006KT 10SM CLR 08/07 A3028 RMK AO2 SLP260 T00830072 10106 20083 53013
KTVR 171053Z AUTO 01009KT 10SM CLR 08/07 A3027 RMK AO2 SLP256 T00830072
KTVR 170953Z AUTO 01008KT 10SM CLR 08/07 A3025 RMK AO2 SLP250 T00830072
KTVR 170853Z AUTO 02008KT 10SM CLR 09/07 A3024 RMK AO2 SLP246 T00890072 58005
KTVR 170753Z AUTO 02008KT 10SM CLR 09/07 A3025 RMK AO2 SLP251 T00890072
KTVR 170653Z AUTO 02007KT 10SM CLR 09/07 A3026 RMK AO2 SLP252 T00940072
KTVR 170553Z AUTO 02007KT 10SM CLR 11/07 A3025 RMK AO2 SLP252 T01060072 10156 20100 402220100 58002
KTVR 170453Z AUTO 02007KT 10SM CLR 11/07 A3026 RMK AO2 SLP253 T01060072
KTVR 170353Z AUTO 03008KT 10SM CLR 12/07 A3027 RMK AO2 SLP255 T01170067
KTVR 170253Z AUTO 01008KT 10SM CLR 13/07 A3026 RMK AO2 SLP254 T01280072 51014
KTVR 170153Z AUTO 36006KT 10SM CLR 13/07 A3025 RMK AO2 SLP252 T01330072
KTVR 170053Z AUTO 36005KT 10SM CLR 14/08 A3024 RMK AO2 SLP246 T01440078
KTVR 162353Z AUTO 02007KT 10SM CLR 16/07 A3022 RMK AO2 SLP240 T01560072 10222 20156 53007
KTVR 162253Z AUTO 01013KT 10SM CLR 19/06 A3021 RMK AO2 SLP235 T01890056
KTVR 162153Z AUTO 02013KT 10SM CLR 21/06 A3020 RMK AO2 SLP233 T02110056
KTVR 162053Z AUTO 01017G22KT 10SM CLR 22/06 A3020 RMK AO2 SLP232 T02170061 56026
KTVR 161953Z AUTO 02016G22KT 10SM CLR 22/06 A3022 RMK AO2 SLP239 T02170061
KTVR 161853Z AUTO 01015G20KT 10SM CLR 21/08 A3024 RMK AO2 SLP246 T02110078
KTVR 161753Z AUTO 36016G20KT 10SM CLR 20/08 A3028 RMK AO2 SLP259 60000 T02000078 10200 20111 58013
KTVR 161653Z AUTO 01015G21KT 10SM CLR 19/08 A3031 RMK AO2 SLP270 T01890078
KTVR 161553Z AUTO 02009KT 10SM CLR 18/09 A3032 RMK AO2 RAE02 SLP272 P0000 T01780089
KTVR 161453Z AUTO 04014G22KT 10SM -RA CLR 16/09 A3031 RMK AO2 RAB47 SLP272 P0000 60000 T01560089 51013
KTVR 161353Z AUTO 02010KT 10SM CLR 14/10 A3031 RMK AO2 SLP269 T01390100
KTVR 161253Z AUTO 01011KT 10SM CLR 12/11 A3029 RMK AO2 SLP264 T01220106
KTVR 161153Z AUTO 01011KT 10SM CLR 11/10 A3027 RMK AO2 SLP258 70017 T01110100 10161 20111 53021
KTVR 161053Z AUTO 01010KT 10SM CLR 12/10 A3025 RMK AO2 SLP251 T01170100
KTVR 160953Z AUTO 02010KT 10SM CLR 13/10 A3023 RMK AO2 SLP241 T01330100
KTVR 160853Z AUTO 04011KT 10SM CLR 14/11 A3021 RMK AO2 SLP237 T01390111 58003
KTVR 160753Z AUTO 02011G17KT 10SM CLR 15/12 A3021 RMK AO2 SLP236 T01500117
KTVR 160653Z AUTO 03012KT 10SM OVC085 16/13 A3022 RMK AO2 SLP239 T01610128